createdAt,value
2017-03-24T00:00:11.630Z,1005.55
2017-03-24T00:00:38.075Z,1005.37
2017-03-24T00:00:59.862Z,1005.28
2017-03-24T00:01:21.545Z,1005.29
2017-03-24T00:01:48.055Z,1005.34
2017-03-24T00:02:09.821Z,1005.43
2017-03-24T00:02:31.536Z,1005.33
2017-03-24T00:02:58.033Z,1005.44
2017-03-24T00:03:19.716Z,1005.29
2017-03-24T00:03:41.476Z,1005.43
2017-03-24T00:04:07.983Z,1005.28
2017-03-24T00:04:29.657Z,1005.59
2017-03-24T00:04:51.371Z,1005.35
2017-03-24T00:05:13.135Z,1005.54
2017-03-24T00:05:34.843Z,1005.50
2017-03-24T00:05:56.542Z,1005.37
2017-03-24T00:06:23.142Z,1005.33
2017-03-24T00:06:44.770Z,1005.64
2017-03-24T00:07:11.270Z,1005.61
2017-03-24T00:07:32.960Z,1005.49
2017-03-24T00:07:54.768Z,1005.49
2017-03-24T00:08:53.056Z,1005.24
2017-03-24T00:09:14.830Z,1005.35
2017-03-24T00:09:41.325Z,1005.41
2017-03-24T00:10:03.011Z,1005.35
2017-03-24T00:10:24.778Z,1005.33
2017-03-24T00:10:51.277Z,1005.47
2017-03-24T00:11:12.948Z,1005.42
2017-03-24T00:11:34.667Z,1005.36
2017-03-24T00:11:56.441Z,1005.40
2017-03-24T00:12:18.149Z,1005.30
2017-03-24T00:12:39.856Z,1005.50
2017-03-24T00:13:01.582Z,1005.32
2017-03-24T00:13:23.384Z,1005.47
2017-03-24T00:13:49.901Z,1005.45
2017-03-24T00:14:11.594Z,1005.52
2017-03-24T00:14:38.192Z,1005.72
2017-03-24T00:14:59.887Z,1005.45
2017-03-24T00:15:21.587Z,1005.48
2017-03-24T00:15:48.193Z,1005.58
2017-03-24T00:16:14.654Z,1005.95
2017-03-24T00:17:07.661Z,1005.48
2017-03-24T00:17:29.375Z,1005.54
2017-03-24T00:17:51.121Z,1005.47
2017-03-24T00:18:12.850Z,1005.43
2017-03-24T00:19:05.933Z,1005.43
2017-03-24T00:19:32.448Z,1005.52
2017-03-24T00:19:54.121Z,1005.54
2017-03-24T00:20:20.718Z,1005.89
2017-03-24T00:20:42.417Z,1005.78
2017-03-24T00:21:04.130Z,1005.81
2017-03-24T00:21:25.840Z,1005.73
2017-03-24T00:21:47.634Z,1005.56
2017-03-24T00:22:09.343Z,1005.55
2017-03-24T00:23:16.750Z,1005.54
2017-03-24T00:23:38.375Z,1005.70
2017-03-24T00:24:04.863Z,1005.89
2017-03-24T00:24:26.566Z,1005.76
2017-03-24T00:25:29.096Z,1005.66
2017-03-24T00:26:27.392Z,1005.61
2017-03-24T00:26:53.928Z,1005.81
2017-03-24T00:27:15.624Z,1005.67
2017-03-24T00:27:37.385Z,1005.72
2017-03-24T00:27:59.100Z,1005.60
2017-03-24T00:28:57.510Z,1005.75
2017-03-24T00:29:19.267Z,1005.76
2017-03-24T00:29:40.984Z,1005.76
2017-03-24T00:30:43.598Z,1005.74
2017-03-24T00:31:05.363Z,1005.71
2017-03-24T00:31:58.440Z,1005.84
2017-03-24T00:32:20.159Z,1005.78
2017-03-24T00:32:46.663Z,1005.59
2017-03-24T00:33:08.437Z,1005.65
2017-03-24T00:33:30.144Z,1005.91
2017-03-24T00:33:56.642Z,1005.65
2017-03-24T00:34:18.347Z,1005.60
2017-03-24T00:34:40.178Z,1005.82
2017-03-24T00:35:06.667Z,1005.87
2017-03-24T00:35:28.381Z,1005.66
2017-03-24T00:35:54.986Z,1005.95
2017-03-24T00:36:16.606Z,1005.84
2017-03-24T00:36:43.105Z,1005.74
2017-03-24T00:37:04.788Z,1005.89
2017-03-24T00:37:57.756Z,1005.87
2017-03-24T00:38:24.268Z,1005.75
2017-03-24T00:39:17.217Z,1006.06
2017-03-24T00:39:38.901Z,1006.01
2017-03-24T00:40:31.934Z,1005.64
2017-03-24T00:41:34.474Z,1005.75
2017-03-24T00:41:56.186Z,1005.68
2017-03-24T00:42:17.896Z,1005.79
2017-03-24T00:42:39.622Z,1005.82
2017-03-24T00:43:01.349Z,1005.95
2017-03-24T00:43:23.071Z,1005.82
2017-03-24T00:43:44.808Z,1006.00
2017-03-24T00:44:06.533Z,1005.79
2017-03-24T00:44:28.232Z,1005.71
2017-03-24T00:44:49.918Z,1005.82
2017-03-24T00:45:11.612Z,1005.92
2017-03-24T00:45:33.312Z,1005.82
2017-03-24T00:46:31.617Z,1005.82
2017-03-24T00:46:53.331Z,1005.91
2017-03-24T00:47:46.377Z,1006.04
2017-03-24T00:48:39.372Z,1005.88
2017-03-24T00:49:01.092Z,1005.86
2017-03-24T00:49:54.117Z,1006.02
2017-03-24T00:51:33.247Z,1006.36
2017-03-24T00:51:59.763Z,1006.08
2017-03-24T00:52:21.506Z,1005.91
2017-03-24T00:52:43.204Z,1005.69
2017-03-24T00:53:04.901Z,1005.72
2017-03-24T00:53:26.613Z,1005.84
2017-03-24T00:53:48.359Z,1005.79
2017-03-24T00:54:41.325Z,1005.98
2017-03-24T00:55:43.847Z,1006.11
2017-03-24T00:56:05.616Z,1006.16
2017-03-24T00:57:08.140Z,1005.90
2017-03-24T00:57:34.634Z,1005.88
2017-03-24T00:58:33.095Z,1006.09
2017-03-24T00:58:59.631Z,1006.05
2017-03-24T00:59:52.618Z,1006.00
2017-03-24T01:00:59.922Z,1005.94
2017-03-24T01:01:21.644Z,1006.03
2017-03-24T01:01:48.122Z,1006.10
2017-03-24T01:02:09.833Z,1006.33
2017-03-24T01:02:31.554Z,1006.01
2017-03-24T01:02:53.269Z,1006.03
2017-03-24T01:03:14.974Z,1006.08
2017-03-24T01:04:08.037Z,1006.01
2017-03-24T01:04:29.767Z,1005.99
2017-03-24T01:04:56.274Z,1006.07
2017-03-24T01:05:18.002Z,1006.18
2017-03-24T01:06:11.037Z,1006.31
2017-03-24T01:06:37.541Z,1006.02
2017-03-24T01:06:59.311Z,1006.23
2017-03-24T01:07:25.826Z,1006.27
2017-03-24T01:07:47.552Z,1005.97
2017-03-24T01:08:14.070Z,1006.07
2017-03-24T01:08:35.824Z,1006.00
2017-03-24T01:09:38.364Z,1006.08
2017-03-24T01:11:07.861Z,1006.11
2017-03-24T01:11:30.556Z,1006.24
2017-03-24T01:11:52.259Z,1006.27
2017-03-24T01:12:13.959Z,1006.10
2017-03-24T01:12:40.448Z,1006.15
2017-03-24T01:13:06.929Z,1006.19
2017-03-24T01:13:28.646Z,1006.19
2017-03-24T01:13:50.370Z,1006.27
2017-03-24T01:14:12.092Z,1006.28
2017-03-24T01:14:33.792Z,1006.39
2017-03-24T01:14:55.492Z,1006.29
2017-03-24T01:15:17.192Z,1006.37
2017-03-24T01:15:38.885Z,1006.34
2017-03-24T01:16:00.585Z,1006.38
2017-03-24T01:16:22.382Z,1006.34
2017-03-24T01:16:44.120Z,1006.38
2017-03-24T01:17:05.843Z,1006.38
2017-03-24T01:17:32.336Z,1006.38
2017-03-24T01:17:54.099Z,1006.30
2017-03-24T01:18:15.848Z,1006.42
2017-03-24T01:18:42.340Z,1006.51
2017-03-24T01:19:04.067Z,1006.53
2017-03-24T01:19:30.560Z,1006.41
2017-03-24T01:19:52.281Z,1006.63
2017-03-24T01:20:13.998Z,1006.53
2017-03-24T01:21:12.326Z,1006.63
2017-03-24T01:21:34.019Z,1006.57
2017-03-24T01:21:55.739Z,1006.44
2017-03-24T01:22:17.454Z,1006.59
2017-03-24T01:22:39.172Z,1006.41
2017-03-24T01:23:00.906Z,1006.45
2017-03-24T01:23:22.627Z,1006.57
2017-03-24T01:23:44.393Z,1006.55
2017-03-24T01:24:06.120Z,1006.62
2017-03-24T01:24:27.863Z,1006.76
2017-03-24T01:24:49.587Z,1006.70
2017-03-24T01:25:11.298Z,1006.69
2017-03-24T01:25:33.028Z,1006.56
2017-03-24T01:25:54.745Z,1006.57
2017-03-24T01:26:16.470Z,1006.56
2017-03-24T01:26:38.211Z,1006.49
2017-03-24T01:26:59.926Z,1006.53
2017-03-24T01:27:21.657Z,1006.64
2017-03-24T01:27:43.388Z,1006.53
2017-03-24T01:28:05.265Z,1006.51
2017-03-24T01:28:27.026Z,1006.68
2017-03-24T01:28:48.785Z,1006.55
2017-03-24T01:29:10.536Z,1006.56
2017-03-24T01:29:32.306Z,1006.75
2017-03-24T01:29:54.076Z,1006.71
2017-03-24T01:30:15.771Z,1006.70
2017-03-24T01:30:37.508Z,1006.58
2017-03-24T01:30:59.274Z,1006.52
2017-03-24T01:31:20.994Z,1006.55
2017-03-24T01:31:42.723Z,1006.67
2017-03-24T01:32:04.443Z,1006.64
2017-03-24T01:32:26.175Z,1006.66
2017-03-24T01:32:47.945Z,1006.78
2017-03-24T01:33:09.645Z,1006.71
2017-03-24T01:34:07.998Z,1006.61
2017-03-24T01:34:29.731Z,1006.58
2017-03-24T01:34:51.484Z,1006.68
2017-03-24T01:35:13.220Z,1006.53
2017-03-24T01:35:34.962Z,1006.54
2017-03-24T01:35:56.698Z,1006.71
2017-03-24T01:36:18.434Z,1006.72
2017-03-24T01:36:40.145Z,1006.73
2017-03-24T01:37:01.870Z,1006.67
2017-03-24T01:37:23.580Z,1006.48
2017-03-24T01:37:45.302Z,1006.45
2017-03-24T01:38:07.082Z,1006.51
2017-03-24T01:38:28.834Z,1006.58
2017-03-24T01:38:50.530Z,1006.50
2017-03-24T01:39:12.214Z,1006.59
2017-03-24T01:39:33.918Z,1006.64
2017-03-24T01:39:55.645Z,1006.58
2017-03-24T01:40:17.374Z,1006.68
2017-03-24T01:40:39.074Z,1006.80
2017-03-24T01:41:00.892Z,1006.66
2017-03-24T01:41:22.583Z,1006.77
2017-03-24T01:41:44.306Z,1006.65
2017-03-24T01:42:06.023Z,1006.63
2017-03-24T01:42:27.764Z,1006.62
2017-03-24T01:42:49.500Z,1006.78
2017-03-24T01:43:11.211Z,1006.66
2017-03-24T01:43:32.966Z,1006.64
2017-03-24T01:43:54.696Z,1006.60
2017-03-24T01:44:48.574Z,1006.88
2017-03-24T01:45:10.260Z,1006.94
2017-03-24T01:45:31.949Z,1006.89
2017-03-24T01:45:53.686Z,1006.81
2017-03-24T01:46:16.390Z,1006.87
2017-03-24T01:46:42.865Z,1006.84
2017-03-24T01:47:07.440Z,1006.81
2017-03-24T01:47:29.136Z,1006.60
2017-03-24T01:47:50.839Z,1006.66
2017-03-24T01:48:12.542Z,1006.67
2017-03-24T01:48:34.249Z,1006.81
2017-03-24T01:49:32.579Z,1006.89
2017-03-24T01:49:54.313Z,1007.05
2017-03-24T01:50:20.907Z,1007.09
2017-03-24T01:50:42.741Z,1006.87
2017-03-24T01:51:04.464Z,1006.86
2017-03-24T01:51:30.957Z,1006.76
2017-03-24T01:51:52.694Z,1006.97
2017-03-24T01:52:14.410Z,1007.08
2017-03-24T01:52:40.894Z,1006.83
2017-03-24T01:53:02.609Z,1006.98
2017-03-24T01:53:24.355Z,1006.89
2017-03-24T01:53:50.853Z,1006.90
2017-03-24T01:54:12.567Z,1007.00
2017-03-24T01:54:34.295Z,1006.97
2017-03-24T01:55:32.672Z,1007.04
2017-03-24T01:55:54.369Z,1007.19
2017-03-24T01:56:52.775Z,1006.93
2017-03-24T01:57:14.496Z,1006.97
2017-03-24T01:58:07.492Z,1006.98
2017-03-24T01:58:33.982Z,1006.92
2017-03-24T01:58:55.704Z,1006.89
2017-03-24T01:59:17.390Z,1007.11
2017-03-24T01:59:39.092Z,1007.25
2017-03-24T02:00:00.801Z,1006.88
2017-03-24T02:00:59.181Z,1006.88
2017-03-24T02:01:20.894Z,1006.96
2017-03-24T02:01:47.414Z,1007.06
2017-03-24T02:02:09.113Z,1007.01
2017-03-24T02:02:30.805Z,1006.94
2017-03-24T02:02:52.514Z,1006.98
2017-03-24T02:03:14.207Z,1006.98
2017-03-24T02:03:35.905Z,1007.11
2017-03-24T02:04:02.377Z,1006.98
2017-03-24T02:04:24.122Z,1007.12
2017-03-24T02:04:45.847Z,1007.04
2017-03-24T02:05:38.975Z,1007.08
2017-03-24T02:06:05.460Z,1006.90
2017-03-24T02:06:27.194Z,1007.07
2017-03-24T02:07:25.504Z,1006.98
2017-03-24T02:08:23.826Z,1007.05
2017-03-24T02:08:45.541Z,1006.97
2017-03-24T02:09:48.058Z,1006.84
2017-03-24T02:10:09.781Z,1006.91
2017-03-24T02:11:02.798Z,1007.17
2017-03-24T02:11:24.574Z,1007.05
2017-03-24T02:11:46.254Z,1007.02
2017-03-24T02:12:07.956Z,1007.00
2017-03-24T02:12:29.668Z,1007.09
2017-03-24T02:12:51.398Z,1006.98
2017-03-24T02:13:13.119Z,1007.05
2017-03-24T02:13:34.830Z,1006.93
2017-03-24T02:14:27.783Z,1007.03
2017-03-24T02:14:49.484Z,1007.20
2017-03-24T02:15:16.002Z,1006.95
2017-03-24T02:15:42.557Z,1006.91
2017-03-24T02:16:09.035Z,1007.01
2017-03-24T02:16:30.781Z,1007.08
2017-03-24T02:16:57.291Z,1007.22
2017-03-24T02:17:19.004Z,1007.11
2017-03-24T02:17:40.720Z,1007.21
2017-03-24T02:18:02.431Z,1007.14
2017-03-24T02:18:24.139Z,1007.18
2017-03-24T02:18:45.834Z,1007.21
2017-03-24T02:19:12.311Z,1007.11
2017-03-24T02:19:34.017Z,1007.07
2017-03-24T02:19:55.729Z,1007.05
2017-03-24T02:21:03.025Z,1007.07
2017-03-24T02:21:24.712Z,1007.17
2017-03-24T02:22:18.738Z,1007.11
2017-03-24T02:22:45.219Z,1007.05
2017-03-24T02:23:06.940Z,1007.19
2017-03-24T02:23:28.646Z,1007.08
2017-03-24T02:23:55.138Z,1007.08
2017-03-24T02:24:16.860Z,1007.20
2017-03-24T02:25:19.374Z,1007.08
2017-03-24T02:25:41.084Z,1007.26
2017-03-24T02:26:02.819Z,1007.21
2017-03-24T02:26:24.529Z,1007.29
2017-03-24T02:26:46.343Z,1007.21
2017-03-24T02:27:48.866Z,1007.26
2017-03-24T02:28:41.853Z,1007.36
2017-03-24T02:29:34.837Z,1007.13
2017-03-24T02:30:27.815Z,1007.13
2017-03-24T02:30:49.514Z,1007.24
2017-03-24T02:31:42.498Z,1007.09
2017-03-24T02:32:04.245Z,1007.18
2017-03-24T02:32:30.735Z,1007.22
2017-03-24T02:32:52.428Z,1007.24
2017-03-24T02:33:14.115Z,1007.16
2017-03-24T02:33:35.822Z,1007.06
2017-03-24T02:33:57.587Z,1007.07
2017-03-24T02:34:19.290Z,1007.22
2017-03-24T02:34:40.993Z,1007.09
2017-03-24T02:35:02.687Z,1007.13
2017-03-24T02:35:24.401Z,1007.18
2017-03-24T02:36:17.380Z,1007.16
2017-03-24T02:36:39.105Z,1007.03
2017-03-24T02:37:05.575Z,1007.09
2017-03-24T02:37:27.265Z,1007.22
2017-03-24T02:37:48.982Z,1007.02
2017-03-24T02:38:10.684Z,1007.20
2017-03-24T02:38:32.375Z,1007.19
2017-03-24T02:38:54.070Z,1007.17
2017-03-24T02:39:15.778Z,1007.31
2017-03-24T02:39:37.525Z,1007.16
2017-03-24T02:40:03.970Z,1007.10
2017-03-24T02:40:25.666Z,1007.28
2017-03-24T02:40:52.157Z,1007.19
2017-03-24T02:41:13.852Z,1007.03
2017-03-24T02:41:35.548Z,1007.09
2017-03-24T02:41:57.249Z,1007.07
2017-03-24T02:42:18.947Z,1007.13
2017-03-24T02:42:40.646Z,1007.26
2017-03-24T02:43:02.351Z,1007.17
2017-03-24T02:43:24.055Z,1007.08
2017-03-24T02:43:45.751Z,1007.16
2017-03-24T02:44:12.218Z,1007.15
2017-03-24T02:44:33.919Z,1007.20
2017-03-24T02:45:26.871Z,1007.23
2017-03-24T02:45:53.352Z,1007.32
2017-03-24T02:46:15.060Z,1007.30
2017-03-24T02:46:36.778Z,1007.23
2017-03-24T02:47:39.289Z,1007.13
2017-03-24T02:48:32.263Z,1007.26
2017-03-24T02:48:53.969Z,1007.24
2017-03-24T02:49:15.670Z,1007.21
2017-03-24T02:49:37.354Z,1007.14
2017-03-24T02:50:30.320Z,1007.24
2017-03-24T02:50:56.806Z,1007.16
2017-03-24T02:51:18.531Z,1006.96
2017-03-24T02:51:40.226Z,1006.83
2017-03-24T02:52:06.704Z,1006.87
2017-03-24T02:52:28.421Z,1006.94
2017-03-24T02:53:30.970Z,1007.05
2017-03-24T02:53:52.706Z,1007.14
2017-03-24T02:54:19.199Z,1007.04
2017-03-24T02:54:40.934Z,1006.89
2017-03-24T02:55:02.630Z,1006.86
2017-03-24T02:55:24.330Z,1006.91
2017-03-24T02:55:46.327Z,1007.16
2017-03-24T02:56:17.572Z,1007.02
2017-03-24T02:56:39.278Z,1006.99
2017-03-24T02:57:46.587Z,1007.10
2017-03-24T02:58:08.298Z,1007.14
2017-03-24T02:58:29.992Z,1006.97
2017-03-24T02:58:51.696Z,1007.06
2017-03-24T02:59:13.389Z,1007.20
2017-03-24T02:59:35.093Z,1007.20
2017-03-24T03:00:01.593Z,1007.04
2017-03-24T03:00:23.378Z,1006.95
2017-03-24T03:00:49.882Z,1006.83
2017-03-24T03:01:11.615Z,1006.92
2017-03-24T03:01:33.371Z,1006.98
2017-03-24T03:01:59.852Z,1006.98
2017-03-24T03:02:21.578Z,1007.07
2017-03-24T03:03:19.890Z,1006.98
2017-03-24T03:03:41.595Z,1006.94
2017-03-24T03:04:39.906Z,1007.04
2017-03-24T03:05:01.603Z,1007.13
2017-03-24T03:05:59.901Z,1007.14
2017-03-24T03:06:21.660Z,1007.02
2017-03-24T03:06:48.213Z,1007.27
2017-03-24T03:07:09.994Z,1007.00
2017-03-24T03:08:08.310Z,1007.00
2017-03-24T03:09:06.081Z,1007.02
2017-03-24T03:09:59.105Z,1007.02
2017-03-24T03:10:25.601Z,1006.99
2017-03-24T03:10:47.311Z,1007.08
2017-03-24T03:11:52.356Z,1007.08
2017-03-24T03:12:18.885Z,1007.28
2017-03-24T03:12:40.671Z,1007.18
2017-03-24T03:13:07.120Z,1007.04
2017-03-24T03:13:28.863Z,1007.08
2017-03-24T03:14:21.853Z,1007.14
2017-03-24T03:15:14.855Z,1007.04
2017-03-24T03:16:07.910Z,1007.24
2017-03-24T03:16:34.420Z,1007.05
2017-03-24T03:16:56.143Z,1007.16
2017-03-24T03:17:17.876Z,1007.15
2017-03-24T03:17:44.410Z,1007.18
2017-03-24T03:18:06.139Z,1007.11
2017-03-24T03:19:08.783Z,1007.29
2017-03-24T03:19:30.498Z,1007.42
2017-03-24T03:20:33.010Z,1007.07
2017-03-24T03:20:54.725Z,1007.18
2017-03-24T03:21:53.017Z,1007.18
2017-03-24T03:22:14.749Z,1007.26
2017-03-24T03:23:13.041Z,1007.24
2017-03-24T03:23:34.761Z,1007.30
2017-03-24T03:24:33.099Z,1007.20
2017-03-24T03:24:54.839Z,1007.26
2017-03-24T03:25:21.331Z,1007.20
2017-03-24T03:25:43.035Z,1007.34
2017-03-24T03:26:09.512Z,1007.30
2017-03-24T03:26:31.276Z,1007.37
2017-03-24T03:27:25.299Z,1007.37
2017-03-24T03:27:51.804Z,1007.31
2017-03-24T03:28:13.518Z,1007.28
2017-03-24T03:29:06.537Z,1007.29
2017-03-24T03:29:28.274Z,1007.26
2017-03-24T03:29:54.773Z,1007.26
2017-03-24T03:30:16.492Z,1007.25
2017-03-24T03:31:09.482Z,1007.32
2017-03-24T03:31:35.957Z,1007.46
2017-03-24T03:31:57.713Z,1007.41
2017-03-24T03:32:24.203Z,1007.32
2017-03-24T03:32:45.927Z,1007.25
2017-03-24T03:33:12.432Z,1007.42
2017-03-24T03:33:34.145Z,1007.33
2017-03-24T03:34:00.632Z,1007.22
2017-03-24T03:34:22.341Z,1007.24
2017-03-24T03:34:44.098Z,1007.35
2017-03-24T03:35:10.574Z,1007.28
2017-03-24T03:35:32.286Z,1007.23
2017-03-24T03:35:53.973Z,1007.26
2017-03-24T03:36:15.681Z,1007.35
2017-03-24T03:36:37.422Z,1007.27
2017-03-24T03:36:59.148Z,1007.46
2017-03-24T03:37:20.898Z,1007.37
2017-03-24T03:37:42.613Z,1007.33
2017-03-24T03:38:04.371Z,1007.45
2017-03-24T03:38:26.140Z,1007.42
2017-03-24T03:38:52.632Z,1007.49
2017-03-24T03:39:14.401Z,1007.49
2017-03-24T03:40:16.869Z,1007.50
2017-03-24T03:40:43.361Z,1007.58
2017-03-24T03:41:45.885Z,1007.50
2017-03-24T03:42:07.592Z,1007.38
2017-03-24T03:42:29.345Z,1007.36
2017-03-24T03:42:51.084Z,1007.34
2017-03-24T03:43:51.687Z,1007.44
2017-03-24T03:44:13.416Z,1007.30
2017-03-24T03:45:06.419Z,1007.52
2017-03-24T03:45:59.401Z,1007.56
2017-03-24T03:46:58.749Z,1007.37
2017-03-24T03:47:20.505Z,1007.47
2017-03-24T03:48:18.835Z,1007.58
2017-03-24T03:48:40.686Z,1007.67
2017-03-24T03:49:39.030Z,1007.62
2017-03-24T03:50:00.808Z,1007.46
2017-03-24T03:50:59.132Z,1007.51
2017-03-24T03:51:20.850Z,1007.49
2017-03-24T03:52:28.151Z,1007.72
2017-03-24T03:53:30.682Z,1007.51
2017-03-24T03:53:57.205Z,1007.46
2017-03-24T03:54:59.732Z,1007.46
2017-03-24T03:56:02.249Z,1007.40
2017-03-24T03:56:31.616Z,1007.60
2017-03-24T03:56:53.343Z,1007.38
2017-03-24T03:57:55.857Z,1007.40
2017-03-24T03:58:17.562Z,1007.44
2017-03-24T03:58:39.290Z,1007.41
2017-03-24T03:59:01.018Z,1007.41
2017-03-24T03:59:22.807Z,1007.59
2017-03-24T03:59:44.550Z,1007.65
2017-03-24T04:00:06.294Z,1007.55
2017-03-24T04:00:28.037Z,1007.49
2017-03-24T04:00:49.754Z,1007.57
2017-03-24T04:01:11.484Z,1007.45
2017-03-24T04:01:33.353Z,1007.58
2017-03-24T04:01:55.113Z,1007.50
2017-03-24T04:02:21.593Z,1007.41
2017-03-24T04:02:43.294Z,1007.48
2017-03-24T04:03:05.000Z,1007.50
2017-03-24T04:03:57.974Z,1007.73
2017-03-24T04:04:19.689Z,1007.66
2017-03-24T04:05:12.692Z,1007.45
2017-03-24T04:05:34.427Z,1007.55
2017-03-24T04:05:56.163Z,1007.63
2017-03-24T04:06:17.894Z,1007.55
2017-03-24T04:07:23.034Z,1007.51
2017-03-24T04:07:44.770Z,1007.47
2017-03-24T04:08:43.099Z,1007.53
2017-03-24T04:09:04.820Z,1007.55
2017-03-24T04:10:05.744Z,1007.52
2017-03-24T04:10:27.497Z,1007.60
2017-03-24T04:10:49.240Z,1007.70
2017-03-24T04:11:10.999Z,1007.56
2017-03-24T04:11:37.522Z,1007.56
2017-03-24T04:11:59.331Z,1007.58
2017-03-24T04:12:25.835Z,1007.55
2017-03-24T04:12:47.565Z,1007.77
2017-03-24T04:13:40.604Z,1007.66
2017-03-24T04:14:02.322Z,1007.65
2017-03-24T04:14:28.900Z,1007.57
2017-03-24T04:14:50.665Z,1007.59
2017-03-24T04:15:43.661Z,1007.70
2017-03-24T04:16:46.211Z,1007.81
2017-03-24T04:17:07.907Z,1007.76
2017-03-24T04:17:29.637Z,1007.82
2017-03-24T04:17:51.361Z,1007.80
2017-03-24T04:18:13.094Z,1007.69
2017-03-24T04:18:34.807Z,1007.59
2017-03-24T04:19:37.305Z,1007.55
2017-03-24T04:19:59.043Z,1007.78
2017-03-24T04:20:25.518Z,1007.69
2017-03-24T04:20:47.220Z,1007.65
2017-03-24T04:21:13.708Z,1007.91
2017-03-24T04:21:35.421Z,1007.80
2017-03-24T04:22:37.925Z,1007.59
2017-03-24T04:22:59.625Z,1007.73
2017-03-24T04:23:21.339Z,1007.81
2017-03-24T04:23:47.802Z,1007.74
2017-03-24T04:24:09.498Z,1007.71
2017-03-24T04:24:31.205Z,1007.73
2017-03-24T04:24:57.686Z,1007.84
2017-03-24T04:25:19.406Z,1007.71
2017-03-24T04:25:41.125Z,1007.81
2017-03-24T04:26:07.589Z,1007.80
2017-03-24T04:26:29.285Z,1007.71
2017-03-24T04:26:50.989Z,1007.84
2017-03-24T04:27:12.693Z,1007.84
2017-03-24T04:27:34.414Z,1007.82
2017-03-24T04:28:00.900Z,1007.82
2017-03-24T04:28:22.605Z,1007.85
2017-03-24T04:28:44.294Z,1007.66
2017-03-24T04:29:05.998Z,1007.75
2017-03-24T04:29:27.694Z,1007.64
2017-03-24T04:30:20.745Z,1007.88
2017-03-24T04:31:13.743Z,1007.76
2017-03-24T04:32:12.046Z,1007.73
2017-03-24T04:32:33.744Z,1007.75
2017-03-24T04:32:55.439Z,1007.86
2017-03-24T04:33:17.166Z,1007.79
2017-03-24T04:33:38.856Z,1007.86
2017-03-24T04:34:41.362Z,1007.59
2017-03-24T04:35:34.323Z,1007.88
2017-03-24T04:35:56.017Z,1007.73
2017-03-24T04:36:17.726Z,1007.77
2017-03-24T04:36:44.202Z,1007.78
2017-03-24T04:37:05.917Z,1007.79
2017-03-24T04:37:27.646Z,1007.68
2017-03-24T04:37:54.142Z,1007.63
2017-03-24T04:38:15.876Z,1007.71
2017-03-24T04:38:37.590Z,1007.82
2017-03-24T04:38:59.295Z,1007.75
2017-03-24T04:39:20.991Z,1007.69
2017-03-24T04:40:23.563Z,1007.65
2017-03-24T04:40:45.279Z,1007.70
2017-03-24T04:41:06.986Z,1007.91
2017-03-24T04:41:33.451Z,1007.75
2017-03-24T04:41:55.156Z,1007.82
2017-03-24T04:42:21.635Z,1007.78
2017-03-24T04:42:43.410Z,1007.83
2017-03-24T04:43:09.911Z,1007.90
2017-03-24T04:43:31.651Z,1007.73
2017-03-24T04:43:58.153Z,1007.82
2017-03-24T04:44:19.954Z,1007.89
2017-03-24T04:44:41.673Z,1007.88
2017-03-24T04:45:40.022Z,1007.71
2017-03-24T04:46:33.105Z,1008.03
2017-03-24T04:46:54.805Z,1007.83
2017-03-24T04:47:21.286Z,1007.66
2017-03-24T04:47:42.973Z,1007.81
2017-03-24T04:48:04.670Z,1007.75
2017-03-24T04:48:57.634Z,1007.88
2017-03-24T04:49:19.357Z,1007.81
2017-03-24T04:50:12.394Z,1007.81
2017-03-24T04:50:34.248Z,1007.96
2017-03-24T04:51:27.214Z,1007.70
2017-03-24T04:51:48.906Z,1007.84
2017-03-24T04:52:10.604Z,1007.81
2017-03-24T04:52:32.344Z,1007.82
2017-03-24T04:52:54.036Z,1007.88
2017-03-24T04:53:15.734Z,1007.92
2017-03-24T04:53:37.429Z,1007.83
2017-03-24T04:53:59.139Z,1007.76
2017-03-24T04:54:25.618Z,1007.97
2017-03-24T04:54:48.405Z,1007.98
2017-03-24T04:55:14.895Z,1007.86
2017-03-24T04:55:36.597Z,1007.98
2017-03-24T04:56:34.914Z,1007.94
2017-03-24T04:56:56.602Z,1007.83
2017-03-24T04:57:18.306Z,1007.95
2017-03-24T04:57:44.799Z,1008.12
2017-03-24T04:58:06.557Z,1008.11
2017-03-24T04:58:33.054Z,1007.93
2017-03-24T04:58:54.777Z,1007.96
2017-03-24T04:59:24.270Z,1007.87
2017-03-24T04:59:45.995Z,1007.95
2017-03-24T05:00:07.704Z,1007.94
2017-03-24T05:00:29.407Z,1007.98
2017-03-24T05:00:51.102Z,1008.14
2017-03-24T05:01:12.805Z,1007.96
2017-03-24T05:02:05.746Z,1007.91
2017-03-24T05:02:32.230Z,1007.76
2017-03-24T05:02:53.930Z,1007.89
2017-03-24T05:03:20.400Z,1007.95
2017-03-24T05:03:42.089Z,1008.00
2017-03-24T05:04:08.593Z,1007.88
2017-03-24T05:04:30.326Z,1007.92
2017-03-24T05:04:56.801Z,1007.94
2017-03-24T05:05:18.528Z,1008.10
2017-03-24T05:05:45.006Z,1008.08
2017-03-24T05:06:43.311Z,1008.02
2017-03-24T05:07:36.277Z,1007.76
2017-03-24T05:07:57.986Z,1007.87
2017-03-24T05:08:19.685Z,1007.94
2017-03-24T05:08:41.392Z,1007.86
2017-03-24T05:09:03.090Z,1007.83
2017-03-24T05:09:24.814Z,1007.82
2017-03-24T05:09:46.511Z,1007.89
2017-03-24T05:10:13.002Z,1007.83
2017-03-24T05:10:34.720Z,1007.85
2017-03-24T05:10:56.429Z,1008.07
2017-03-24T05:11:49.394Z,1007.93
2017-03-24T05:12:11.085Z,1007.93
2017-03-24T05:12:32.781Z,1007.89
2017-03-24T05:12:54.479Z,1007.98
2017-03-24T05:13:16.182Z,1007.91
2017-03-24T05:13:42.654Z,1007.96
2017-03-24T05:14:04.343Z,1008.00
2017-03-24T05:14:26.063Z,1008.21
2017-03-24T05:15:28.577Z,1008.01
2017-03-24T05:16:21.580Z,1007.92
2017-03-24T05:16:48.078Z,1008.09
2017-03-24T05:17:09.811Z,1008.07
2017-03-24T05:17:36.292Z,1007.99
2017-03-24T05:17:57.994Z,1008.11
2017-03-24T05:18:24.601Z,1008.01
2017-03-24T05:18:47.329Z,1008.06
2017-03-24T05:19:13.808Z,1008.24
2017-03-24T05:19:35.502Z,1008.05
2017-03-24T05:20:01.975Z,1008.06
2017-03-24T05:20:23.925Z,1007.97
2017-03-24T05:20:45.651Z,1008.04
2017-03-24T05:21:07.393Z,1008.13
2017-03-24T05:22:00.346Z,1008.03
2017-03-24T05:22:53.301Z,1008.06
2017-03-24T05:23:51.619Z,1008.11
2017-03-24T05:24:13.409Z,1008.25
2017-03-24T05:24:39.902Z,1008.25
2017-03-24T05:25:01.589Z,1008.10
2017-03-24T05:25:23.291Z,1008.14
2017-03-24T05:25:44.992Z,1008.22
2017-03-24T05:26:06.690Z,1008.17
2017-03-24T05:27:07.961Z,1008.12
2017-03-24T05:27:35.443Z,1008.10
2017-03-24T05:27:57.140Z,1008.05
2017-03-24T05:28:50.084Z,1008.12
2017-03-24T05:29:11.818Z,1008.23
2017-03-24T05:29:38.305Z,1007.97
2017-03-24T05:30:00.055Z,1008.13
2017-03-24T05:31:02.611Z,1007.98
2017-03-24T05:31:24.535Z,1008.01
2017-03-24T05:32:17.654Z,1008.09
2017-03-24T05:33:16.087Z,1008.11
2017-03-24T05:34:14.314Z,1008.27
2017-03-24T05:34:36.058Z,1008.21
2017-03-24T05:35:29.053Z,1008.29
2017-03-24T05:36:22.063Z,1008.16
2017-03-24T05:36:43.796Z,1008.01
2017-03-24T05:37:36.862Z,1008.03
2017-03-24T05:37:58.606Z,1007.98
2017-03-24T05:38:51.608Z,1008.03
2017-03-24T05:39:18.118Z,1008.06
2017-03-24T05:39:39.860Z,1008.22
2017-03-24T05:40:01.605Z,1008.10
2017-03-24T05:41:04.158Z,1007.98
2017-03-24T05:41:25.891Z,1007.98
2017-03-24T05:41:52.436Z,1007.95
2017-03-24T05:42:54.958Z,1008.22
2017-03-24T05:43:53.300Z,1007.89
2017-03-24T05:45:01.134Z,1007.93
2017-03-24T05:45:22.833Z,1008.13
2017-03-24T05:45:44.557Z,1008.00
2017-03-24T05:46:06.253Z,1007.87
2017-03-24T05:46:27.955Z,1007.89
2017-03-24T05:47:21.093Z,1007.86
2017-03-24T05:47:42.829Z,1007.90
2017-03-24T05:48:09.337Z,1007.91
2017-03-24T05:48:31.198Z,1007.90
2017-03-24T05:49:33.730Z,1008.14
2017-03-24T05:50:05.028Z,1008.05
2017-03-24T05:50:26.737Z,1008.05
2017-03-24T05:50:53.217Z,1008.02
2017-03-24T05:51:14.969Z,1008.01
2017-03-24T05:51:41.484Z,1007.92
2017-03-24T05:52:03.228Z,1007.96
2017-03-24T05:52:29.725Z,1008.12
2017-03-24T05:52:51.485Z,1008.26
2017-03-24T05:53:13.274Z,1008.12
2017-03-24T05:54:12.671Z,1008.09
2017-03-24T05:55:05.671Z,1008.19
2017-03-24T05:55:32.158Z,1008.22
2017-03-24T05:55:53.936Z,1008.24
2017-03-24T05:56:20.443Z,1008.28
2017-03-24T05:56:42.172Z,1008.20